Ashville, Alabama
Current Conditions -  °F | °C
As of 10:15 AM on Thursday 29 Jan 2015 (Local Time) from KGAD Reporting Station
Scattered Clouds Scattered Clouds  
Wind Chill: 44°   Ceiling: Unl
Heat Index: 48°   Visibility: 10mi
Dew Point: 30°   Wind: 9mph
Humidity: 50%   Direction: 200°SSW
Pressure: 30.25"   Gusts: NA
Location:  33.84°N, 86.25°W
Report Text: KGAD 291615Z 20008KT 10SM SCT110 09/M01 A3025 RMK AO1
Loading
Personal Weather Stations






























Interactive Weather Map New forecast layout! Learn more

10-Day Weather Forecast

Advertisements
Track Severe Weather on mobile